Ir al Módulo  



logo_vatsim
logo_vatsur

 


NUEVO SECTOR FILE COLOMBIA
Octubre 16 de 2014

Los invitamos a descargar el nuevo SectorFile de Colombia!




Nuevo Escenario de Bogotá Recomendado
Septiembre 26 de 2014

Los invitamos a conocer el escenario desarrollado por LR30 Scenery Design de SKBO. Vatsim Colombia lo reconoce como escenario oficial de la red.

Links:

FS9: http://www.mediafire.com/download/gfuqcb7qb8r9q9n/BOG_2014_FS9.rar
FSX: http://www.mediafire.com/download/b8831kleqc5nc13/LR30_SKBO_V2.rar




 

 
Untitled Document
SKAR 300200Z 00000KT 9999 SCT022 20/19 A3006
SKBG 300400Z 00000KT 9999 FEW010 SCT080 20/20 A3003
SKBO 300400Z 00000KT 9999 SCT017 SCT200 10/10 A3037
SKBQ 300400Z 01003KT 7000 SCT012 OVC070 26/26 A2988 REDZ RMK HZ
SKCG 300400Z VRB02KT 9999 SCT015 BKN080 27/25 A2984
SKCL 300400Z 05004KT 9999 FEW023 SCT120 20/18 A3002
SKPE 300400Z 10008KT 9999 FEW015 19/17 A3009
SKRG 300400Z 00000KT 4000 -DZ BKN010 OVC080 16/15 A3032